sensor_id;sensor_type;location;lat;lon;timestamp;pressure;altitude;pressure_sealevel;temperature;humidity
64967;BME280;51710;38.732;-121.358;2023-01-28T00:00:10;101393.03;;;17.33;50.49
64967;BME280;51710;38.732;-121.358;2023-01-28T00:02:37;101387.31;;;17.36;50.22
64967;BME280;51710;38.732;-121.358;2023-01-28T00:05:03;101376.88;;;17.33;50.17
64967;BME280;51710;38.732;-121.358;2023-01-28T00:07:30;101367.69;;;17.28;50.23
64967;BME280;51710;38.732;-121.358;2023-01-28T00:09:56;101374.28;;;17.25;50.72
64967;BME280;51710;38.732;-121.358;2023-01-28T00:12:22;101356.28;;;17.26;50.54
64967;BME280;51710;38.732;-121.358;2023-01-28T00:14:49;101354.78;;;17.23;50.39
64967;BME280;51710;38.732;-121.358;2023-01-28T00:17:15;101358.84;;;17.19;50.62
64967;BME280;51710;38.732;-121.358;2023-01-28T00:19:42;101359.22;;;17.16;50.38
64967;BME280;51710;38.732;-121.358;2023-01-28T00:22:09;101361.66;;;17.11;50.80
64967;BME280;51710;38.732;-121.358;2023-01-28T00:24:35;101358.28;;;17.09;50.53
64967;BME280;51710;38.732;-121.358;2023-01-28T00:27:02;101357.81;;;17.06;50.88
64967;BME280;51710;38.732;-121.358;2023-01-28T00:29:28;101374.34;;;17.03;50.86
64967;BME280;51710;38.732;-121.358;2023-01-28T00:31:54;101364.69;;;16.94;50.67
64967;BME280;51710;38.732;-121.358;2023-01-28T00:34:21;101367.28;;;16.87;51.20
64967;BME280;51710;38.732;-121.358;2023-01-28T00:36:48;101366.69;;;16.77;51.64
64967;BME280;51710;38.732;-121.358;2023-01-28T00:39:25;101361.25;;;16.62;52.43
64967;BME280;51710;38.732;-121.358;2023-01-28T00:41:52;101365.75;;;16.47;53.15
64967;BME280;51710;38.732;-121.358;2023-01-28T00:44:19;101364.63;;;16.34;53.99
64967;BME280;51710;38.732;-121.358;2023-01-28T00:46:46;101354.00;;;16.18;54.77
64967;BME280;51710;38.732;-121.358;2023-01-28T00:49:13;101357.44;;;16.04;55.17
64967;BME280;51710;38.732;-121.358;2023-01-28T00:51:39;101344.94;;;15.88;55.81
64967;BME280;51710;38.732;-121.358;2023-01-28T00:54:06;101349.84;;;15.76;56.29
64967;BME280;51710;38.732;-121.358;2023-01-28T00:56:32;101353.75;;;15.66;56.61
64967;BME280;51710;38.732;-121.358;2023-01-28T00:58:58;101349.59;;;15.55;57.54
64967;BME280;51710;38.732;-121.358;2023-01-28T01:01:26;101341.59;;;15.47;57.83
64967;BME280;51710;38.732;-121.358;2023-01-28T01:03:53;101341.28;;;15.42;58.57
64967;BME280;51710;38.732;-121.358;2023-01-28T01:06:27;101335.09;;;15.34;58.06
64967;BME280;51710;38.732;-121.358;2023-01-28T01:08:54;101322.50;;;15.26;58.77
64967;BME280;51710;38.732;-121.358;2023-01-28T01:11:20;101319.88;;;15.18;58.83
64967;BME280;51710;38.732;-121.358;2023-01-28T01:13:51;101312.19;;;15.07;59.52
64967;BME280;51710;38.732;-121.358;2023-01-28T01:16:17;101313.19;;;14.98;59.65
64967;BME280;51710;38.732;-121.358;2023-01-28T01:18:44;101308.53;;;14.84;60.26
64967;BME280;51710;38.732;-121.358;2023-01-28T01:21:13;101311.72;;;14.72;60.32
64967;BME280;51710;38.732;-121.358;2023-01-28T01:23:40;101313.28;;;14.66;60.82
64967;BME280;51710;38.732;-121.358;2023-01-28T01:26:07;101310.91;;;14.63;60.54
64967;BME280;51710;38.732;-121.358;2023-01-28T01:28:33;101312.25;;;14.59;60.62
64967;BME280;51710;38.732;-121.358;2023-01-28T01:31:04;101313.28;;;14.50;61.17
64967;BME280;51710;38.732;-121.358;2023-01-28T01:33:31;101321.47;;;14.40;61.08
64967;BME280;51710;38.732;-121.358;2023-01-28T01:35:58;101320.28;;;14.35;61.28
64967;BME280;51710;38.732;-121.358;2023-01-28T01:38:25;101312.09;;;14.28;61.58
64967;BME280;51710;38.732;-121.358;2023-01-28T01:40:51;101312.56;;;14.24;61.61
64967;BME280;51710;38.732;-121.358;2023-01-28T01:43:19;101317.41;;;14.20;61.65
64967;BME280;51710;38.732;-121.358;2023-01-28T01:45:53;101312.53;;;14.16;62.13
64967;BME280;51710;38.732;-121.358;2023-01-28T01:48:24;101309.34;;;14.12;62.46
64967;BME280;51710;38.732;-121.358;2023-01-28T01:51:00;101317.56;;;14.11;62.20
64967;BME280;51710;38.732;-121.358;2023-01-28T01:53:29;101325.09;;;14.07;62.21
64967;BME280;51710;38.732;-121.358;2023-01-28T01:56:01;101325.06;;;13.99;62.34
64967;BME280;51710;38.732;-121.358;2023-01-28T01:58:33;101324.22;;;13.91;62.35
64967;BME280;51710;38.732;-121.358;2023-01-28T02:01:01;101321.69;;;13.81;62.67
64967;BME280;51710;38.732;-121.358;2023-01-28T02:03:32;101325.19;;;13.74;63.20
64967;BME280;51710;38.732;-121.358;2023-01-28T02:06:03;101320.81;;;13.65;63.02
64967;BME280;51710;38.732;-121.358;2023-01-28T02:08:30;101318.75;;;13.58;63.21
64967;BME280;51710;38.732;-121.358;2023-01-28T02:11:04;101306.84;;;13.53;63.61
64967;BME280;51710;38.732;-121.358;2023-01-28T02:13:41;101305.69;;;13.47;63.61
64967;BME280;51710;38.732;-121.358;2023-01-28T02:16:09;101307.97;;;13.34;63.71
64967;BME280;51710;38.732;-121.358;2023-01-28T02:18:36;101320.28;;;13.19;63.91
64967;BME280;51710;38.732;-121.358;2023-01-28T02:32:11;101315.47;;;12.54;65.60
64967;BME280;51710;38.732;-121.358;2023-01-28T02:34:46;101323.66;;;12.35;65.84
64967;BME280;51710;38.732;-121.358;2023-01-28T02:39:50;101303.69;;;12.04;66.78
64967;BME280;51710;38.732;-121.358;2023-01-28T02:42:18;101304.53;;;12.04;67.05
64967;BME280;51710;38.732;-121.358;2023-01-28T02:44:47;101302.66;;;12.05;66.90
64967;BME280;51710;38.732;-121.358;2023-01-28T02:47:14;101302.66;;;12.05;67.16
64967;BME280;51710;38.732;-121.358;2023-01-28T02:50:11;101301.31;;;12.01;67.78
64967;BME280;51710;38.732;-121.358;2023-01-28T02:52:52;101295.88;;;11.93;67.76
64967;BME280;51710;38.732;-121.358;2023-01-28T02:58:51;101299.38;;;11.76;68.92
64967;BME280;51710;38.732;-121.358;2023-01-28T03:01:41;101308.66;;;11.72;68.96
64967;BME280;51710;38.732;-121.358;2023-01-28T03:04:26;101311.53;;;11.61;69.17
64967;BME280;51710;38.732;-121.358;2023-01-28T03:06:57;101307.81;;;11.44;69.65
64967;BME280;51710;38.732;-121.358;2023-01-28T03:09:27;101315.59;;;11.28;69.72
64967;BME280;51710;38.732;-121.358;2023-01-28T03:12:00;101314.25;;;11.14;69.75
64967;BME280;51710;38.732;-121.358;2023-01-28T03:14:51;101308.03;;;10.96;70.66
64967;BME280;51710;38.732;-121.358;2023-01-28T03:20:50;101316.66;;;10.71;71.11
64967;BME280;51710;38.732;-121.358;2023-01-28T03:23:55;101310.47;;;10.71;71.43
64967;BME280;51710;38.732;-121.358;2023-01-28T03:26:57;101311.72;;;10.76;72.06
64967;BME280;51710;38.732;-121.358;2023-01-28T03:29:46;101317.19;;;10.84;71.65
64967;BME280;51710;38.732;-121.358;2023-01-28T03:32:32;101323.59;;;10.91;71.94
64967;BME280;51710;38.732;-121.358;2023-01-28T03:35:21;101326.25;;;10.91;71.46
64967;BME280;51710;38.732;-121.358;2023-01-28T03:38:08;101336.50;;;10.86;71.07
64967;BME280;51710;38.732;-121.358;2023-01-28T03:40:54;101328.53;;;10.86;71.93
64967;BME280;51710;38.732;-121.358;2023-01-28T03:43:21;101323.91;;;10.88;72.02
64967;BME280;51710;38.732;-121.358;2023-01-28T03:45:48;101328.94;;;10.91;72.28
64967;BME280;51710;38.732;-121.358;2023-01-28T03:48:22;101330.78;;;10.91;72.47
64967;BME280;51710;38.732;-121.358;2023-01-28T03:50:49;101329.22;;;10.88;72.69
64967;BME280;51710;38.732;-121.358;2023-01-28T03:53:16;101332.03;;;10.87;72.93
64967;BME280;51710;38.732;-121.358;2023-01-28T03:55:43;101329.38;;;10.87;73.00
64967;BME280;51710;38.732;-121.358;2023-01-28T03:58:10;101325.84;;;10.86;72.81
64967;BME280;51710;38.732;-121.358;2023-01-28T04:00:37;101330.22;;;10.87;72.76
64967;BME280;51710;38.732;-121.358;2023-01-28T04:03:12;101335.69;;;10.86;72.80
64967;BME280;51710;38.732;-121.358;2023-01-28T04:05:44;101326.72;;;10.87;72.63
64967;BME280;51710;38.732;-121.358;2023-01-28T04:08:11;101326.00;;;10.85;72.45
64967;BME280;51710;38.732;-121.358;2023-01-28T04:10:38;101310.16;;;10.83;72.60
64967;BME280;51710;38.732;-121.358;2023-01-28T04:13:05;101316.19;;;10.85;73.36
64967;BME280;51710;38.732;-121.358;2023-01-28T04:15:32;101326.72;;;10.87;73.53
64967;BME280;51710;38.732;-121.358;2023-01-28T04:17:58;101325.03;;;10.86;73.15
64967;BME280;51710;38.732;-121.358;2023-01-28T04:20:26;101323.63;;;10.82;72.96
64967;BME280;51710;38.732;-121.358;2023-01-28T04:22:52;101326.75;;;10.77;73.06
64967;BME280;51710;38.732;-121.358;2023-01-28T04:25:18;101320.00;;;10.73;73.58
64967;BME280;51710;38.732;-121.358;2023-01-28T04:27:45;101312.16;;;10.72;73.02
64967;BME280;51710;38.732;-121.358;2023-01-28T04:30:11;101313.28;;;10.69;73.64
64967;BME280;51710;38.732;-121.358;2023-01-28T04:32:38;101317.75;;;10.69;73.12
64967;BME280;51710;38.732;-121.358;2023-01-28T04:35:04;101309.22;;;10.65;73.95
64967;BME280;51710;38.732;-121.358;2023-01-28T04:37:30;101304.88;;;10.64;73.90
64967;BME280;51710;38.732;-121.358;2023-01-28T04:39:57;101309.66;;;10.61;73.71
64967;BME280;51710;38.732;-121.358;2023-01-28T04:42:23;101320.06;;;10.54;73.10
64967;BME280;51710;38.732;-121.358;2023-01-28T04:44:49;101323.41;;;10.47;73.37
64967;BME280;51710;38.732;-121.358;2023-01-28T04:47:15;101316.13;;;10.39;73.66
64967;BME280;51710;38.732;-121.358;2023-01-28T04:49:43;101315.84;;;10.33;73.53
64967;BME280;51710;38.732;-121.358;2023-01-28T04:52:11;101313.63;;;10.28;73.65
64967;BME280;51710;38.732;-121.358;2023-01-28T04:54:38;101319.09;;;10.27;74.27
64967;BME280;51710;38.732;-121.358;2023-01-28T04:57:04;101316.84;;;10.22;73.77
64967;BME280;51710;38.732;-121.358;2023-01-28T04:59:30;101313.06;;;10.25;74.05
64967;BME280;51710;38.732;-121.358;2023-01-28T05:01:57;101315.72;;;10.25;74.02
64967;BME280;51710;38.732;-121.358;2023-01-28T05:04:24;101315.59;;;10.26;74.19
64967;BME280;51710;38.732;-121.358;2023-01-28T05:06:50;101317.25;;;10.27;74.22
64967;BME280;51710;38.732;-121.358;2023-01-28T05:09:16;101305.50;;;10.30;73.78
64967;BME280;51710;38.732;-121.358;2023-01-28T05:11:43;101307.03;;;10.32;73.88
64967;BME280;51710;38.732;-121.358;2023-01-28T05:14:09;101321.31;;;10.31;73.99
64967;BME280;51710;38.732;-121.358;2023-01-28T05:16:35;101305.94;;;10.25;73.61
64967;BME280;51710;38.732;-121.358;2023-01-28T05:19:01;101310.56;;;10.23;73.77
64967;BME280;51710;38.732;-121.358;2023-01-28T05:21:28;101310.69;;;10.22;74.06
64967;BME280;51710;38.732;-121.358;2023-01-28T05:23:54;101314.47;;;10.19;73.83
64967;BME280;51710;38.732;-121.358;2023-01-28T05:26:20;101310.53;;;10.13;73.97
64967;BME280;51710;38.732;-121.358;2023-01-28T05:28:46;101312.19;;;10.05;74.39
64967;BME280;51710;38.732;-121.358;2023-01-28T05:31:13;101304.88;;;9.97;73.84
64967;BME280;51710;38.732;-121.358;2023-01-28T05:33:39;101312.59;;;9.91;74.18
64967;BME280;51710;38.732;-121.358;2023-01-28T05:36:06;101307.69;;;9.86;74.35
64967;BME280;51710;38.732;-121.358;2023-01-28T05:38:32;101304.06;;;9.78;74.13
64967;BME280;51710;38.732;-121.358;2023-01-28T05:40:58;101293.81;;;9.64;74.66
64967;BME280;51710;38.732;-121.358;2023-01-28T05:43:24;101292.94;;;9.54;75.02
64967;BME280;51710;38.732;-121.358;2023-01-28T05:45:51;101296.16;;;9.48;75.52
64967;BME280;51710;38.732;-121.358;2023-01-28T05:48:17;101300.03;;;9.44;75.32
64967;BME280;51710;38.732;-121.358;2023-01-28T05:50:46;101300.31;;;9.41;75.33
64967;BME280;51710;38.732;-121.358;2023-01-28T05:53:12;101306.72;;;9.38;75.45
64967;BME280;51710;38.732;-121.358;2023-01-28T05:55:38;101301.25;;;9.30;75.36
64967;BME280;51710;38.732;-121.358;2023-01-28T05:58:05;101305.00;;;9.18;75.53
64967;BME280;51710;38.732;-121.358;2023-01-28T06:00:31;101301.28;;;9.00;75.66
64967;BME280;51710;38.732;-121.358;2023-01-28T06:02:57;101303.69;;;8.82;76.24
64967;BME280;51710;38.732;-121.358;2023-01-28T06:05:24;101296.53;;;8.73;76.81
64967;BME280;51710;38.732;-121.358;2023-01-28T06:07:50;101291.63;;;8.69;77.00
64967;BME280;51710;38.732;-121.358;2023-01-28T06:10:17;101293.56;;;8.67;77.20
64967;BME280;51710;38.732;-121.358;2023-01-28T06:12:43;101302.50;;;8.66;77.37
64967;BME280;51710;38.732;-121.358;2023-01-28T06:15:10;101295.63;;;8.63;77.58
64967;BME280;51710;38.732;-121.358;2023-01-28T06:17:37;101294.22;;;8.59;77.30
64967;BME280;51710;38.732;-121.358;2023-01-28T06:20:03;101295.94;;;8.49;77.35
64967;BME280;51710;38.732;-121.358;2023-01-28T06:22:30;101301.13;;;8.30;77.32
64967;BME280;51710;38.732;-121.358;2023-01-28T06:24:56;101302.28;;;8.06;77.56
64967;BME280;51710;38.732;-121.358;2023-01-28T06:27:22;101296.69;;;7.88;78.58
64967;BME280;51710;38.732;-121.358;2023-01-28T06:29:49;101282.78;;;7.75;78.60
64967;BME280;51710;38.732;-121.358;2023-01-28T06:32:15;101281.00;;;7.64;79.27
64967;BME280;51710;38.732;-121.358;2023-01-28T06:34:41;101290.03;;;7.62;79.38
64967;BME280;51710;38.732;-121.358;2023-01-28T06:37:08;101292.44;;;7.65;80.24
64967;BME280;51710;38.732;-121.358;2023-01-28T06:39:34;101292.19;;;7.68;80.25
64967;BME280;51710;38.732;-121.358;2023-01-28T06:42:00;101300.59;;;7.73;80.07
64967;BME280;51710;38.732;-121.358;2023-01-28T06:44:27;101301.19;;;7.76;79.99
64967;BME280;51710;38.732;-121.358;2023-01-28T06:46:53;101303.72;;;7.78;79.94
64967;BME280;51710;38.732;-121.358;2023-01-28T06:49:19;101296.16;;;7.73;79.46
64967;BME280;51710;38.732;-121.358;2023-01-28T06:51:47;101297.63;;;7.66;79.93
64967;BME280;51710;38.732;-121.358;2023-01-28T06:54:13;101296.16;;;7.62;80.26
64967;BME280;51710;38.732;-121.358;2023-01-28T06:56:39;101301.84;;;7.58;80.40
64967;BME280;51710;38.732;-121.358;2023-01-28T06:59:05;101291.50;;;7.55;80.30
64967;BME280;51710;38.732;-121.358;2023-01-28T07:01:32;101288.75;;;7.56;80.87
64967;BME280;51710;38.732;-121.358;2023-01-28T07:03:58;101283.31;;;7.58;80.80
64967;BME280;51710;38.732;-121.358;2023-01-28T07:06:24;101279.81;;;7.57;81.11
64967;BME280;51710;38.732;-121.358;2023-01-28T07:08:51;101276.44;;;7.55;81.36
64967;BME280;51710;38.732;-121.358;2023-01-28T07:11:17;101290.66;;;7.54;81.14
64967;BME280;51710;38.732;-121.358;2023-01-28T07:13:43;101291.25;;;7.58;81.62
64967;BME280;51710;38.732;-121.358;2023-01-28T07:16:10;101290.28;;;7.59;81.53
64967;BME280;51710;38.732;-121.358;2023-01-28T07:18:36;101290.16;;;7.60;81.67
64967;BME280;51710;38.732;-121.358;2023-01-28T07:21:02;101286.69;;;7.60;81.40
64967;BME280;51710;38.732;-121.358;2023-01-28T07:23:28;101287.38;;;7.62;81.32
64967;BME280;51710;38.732;-121.358;2023-01-28T07:25:59;101282.06;;;7.62;81.81
64967;BME280;51710;38.732;-121.358;2023-01-28T07:28:25;101276.91;;;7.60;81.55
64967;BME280;51710;38.732;-121.358;2023-01-28T07:30:52;101284.25;;;7.57;81.39
64967;BME280;51710;38.732;-121.358;2023-01-28T07:33:19;101282.00;;;7.52;81.68
64967;BME280;51710;38.732;-121.358;2023-01-28T07:35:47;101289.81;;;7.54;81.93
64967;BME280;51710;38.732;-121.358;2023-01-28T07:38:13;101285.97;;;7.58;82.29
64967;BME280;51710;38.732;-121.358;2023-01-28T07:40:40;101292.69;;;7.62;82.25
64967;BME280;51710;38.732;-121.358;2023-01-28T07:43:10;101297.97;;;7.62;82.20
64967;BME280;51710;38.732;-121.358;2023-01-28T07:45:36;101298.34;;;7.57;81.79
64967;BME280;51710;38.732;-121.358;2023-01-28T07:48:05;101294.25;;;7.53;82.37
64967;BME280;51710;38.732;-121.358;2023-01-28T07:50:34;101290.66;;;7.54;82.67
64967;BME280;51710;38.732;-121.358;2023-01-28T07:53:05;101295.59;;;7.59;82.79
64967;BME280;51710;38.732;-121.358;2023-01-28T07:55:32;101296.03;;;7.64;82.41
64967;BME280;51710;38.732;-121.358;2023-01-28T07:58:01;101294.38;;;7.63;82.16
64967;BME280;51710;38.732;-121.358;2023-01-28T08:00:33;101287.63;;;7.59;82.90
64967;BME280;51710;38.732;-121.358;2023-01-28T08:03:01;101287.88;;;7.56;83.07
64967;BME280;51710;38.732;-121.358;2023-01-28T08:05:47;101289.81;;;7.54;82.82
64967;BME280;51710;38.732;-121.358;2023-01-28T08:08:14;101291.88;;;7.50;83.12
64967;BME280;51710;38.732;-121.358;2023-01-28T08:10:41;101288.63;;;7.47;82.93
64967;BME280;51710;38.732;-121.358;2023-01-28T08:13:09;101276.34;;;7.46;83.16
64967;BME280;51710;38.732;-121.358;2023-01-28T08:15:36;101270.34;;;7.44;83.33
64967;BME280;51710;38.732;-121.358;2023-01-28T08:18:04;101284.06;;;7.38;83.42
64967;BME280;51710;38.732;-121.358;2023-01-28T08:20:31;101276.63;;;7.32;83.00
64967;BME280;51710;38.732;-121.358;2023-01-28T08:23:08;101278.06;;;7.25;83.96
64967;BME280;51710;38.732;-121.358;2023-01-28T08:25:36;101268.81;;;7.19;83.49
64967;BME280;51710;38.732;-121.358;2023-01-28T08:28:04;101265.91;;;7.22;84.19
64967;BME280;51710;38.732;-121.358;2023-01-28T08:30:31;101258.56;;;7.26;84.05
64967;BME280;51710;38.732;-121.358;2023-01-28T08:32:58;101262.19;;;7.25;83.96
64967;BME280;51710;38.732;-121.358;2023-01-28T08:35:27;101254.22;;;7.25;83.66
64967;BME280;51710;38.732;-121.358;2023-01-28T08:37:53;101254.97;;;7.27;83.65
64967;BME280;51710;38.732;-121.358;2023-01-28T08:40:20;101250.47;;;7.27;84.08
64967;BME280;51710;38.732;-121.358;2023-01-28T08:42:51;101246.53;;;7.22;83.38
64967;BME280;51710;38.732;-121.358;2023-01-28T08:45:20;101243.41;;;7.17;82.53
64967;BME280;51710;38.732;-121.358;2023-01-28T08:48:04;101246.56;;;7.11;82.77
64967;BME280;51710;38.732;-121.358;2023-01-28T08:50:36;101243.44;;;7.06;82.60
64967;BME280;51710;38.732;-121.358;2023-01-28T08:53:04;101241.97;;;7.02;82.83
64967;BME280;51710;38.732;-121.358;2023-01-28T08:55:32;101238.72;;;6.98;82.72
64967;BME280;51710;38.732;-121.358;2023-01-28T08:58:04;101237.06;;;6.97;83.12
64967;BME280;51710;38.732;-121.358;2023-01-28T09:00:32;101238.00;;;6.96;83.00
64967;BME280;51710;38.732;-121.358;2023-01-28T09:02:59;101240.66;;;6.96;83.11
64967;BME280;51710;38.732;-121.358;2023-01-28T09:05:26;101242.56;;;6.94;83.56
64967;BME280;51710;38.732;-121.358;2023-01-28T09:07:52;101240.91;;;6.93;83.63
64967;BME280;51710;38.732;-121.358;2023-01-28T09:10:19;101238.13;;;6.95;83.17
64967;BME280;51710;38.732;-121.358;2023-01-28T09:12:45;101231.91;;;6.96;83.35
64967;BME280;51710;38.732;-121.358;2023-01-28T09:15:12;101223.22;;;6.94;82.91
64967;BME280;51710;38.732;-121.358;2023-01-28T09:17:42;101216.94;;;6.95;82.82
64967;BME280;51710;38.732;-121.358;2023-01-28T09:20:11;101220.94;;;6.89;82.25
64967;BME280;51710;38.732;-121.358;2023-01-28T09:22:38;101214.06;;;6.75;82.66
64967;BME280;51710;38.732;-121.358;2023-01-28T09:25:04;101214.91;;;6.65;82.49
64967;BME280;51710;38.732;-121.358;2023-01-28T09:27:31;101221.53;;;6.59;82.93
64967;BME280;51710;38.732;-121.358;2023-01-28T09:29:57;101217.19;;;6.47;82.85
64967;BME280;51710;38.732;-121.358;2023-01-28T09:32:23;101222.94;;;6.30;82.50
64967;BME280;51710;38.732;-121.358;2023-01-28T09:34:50;101222.09;;;6.19;83.53
64967;BME280;51710;38.732;-121.358;2023-01-28T09:37:17;101227.22;;;6.09;83.33
64967;BME280;51710;38.732;-121.358;2023-01-28T09:39:43;101225.28;;;6.00;83.65
64967;BME280;51710;38.732;-121.358;2023-01-28T09:48:12;101229.75;;;6.00;83.91
64967;BME280;51710;38.732;-121.358;2023-01-28T09:50:42;101227.09;;;6.00;83.58
64967;BME280;51710;38.732;-121.358;2023-01-28T09:53:20;101230.69;;;5.99;83.87
64967;BME280;51710;38.732;-121.358;2023-01-28T09:56:01;101224.53;;;5.98;83.59
64967;BME280;51710;38.732;-121.358;2023-01-28T09:58:31;101227.19;;;5.98;84.08
64967;BME280;51710;38.732;-121.358;2023-01-28T10:09:31;101225.97;;;5.91;82.83
64967;BME280;51710;38.732;-121.358;2023-01-28T10:12:42;101230.13;;;5.83;82.77
64967;BME280;51710;38.732;-121.358;2023-01-28T10:17:56;101229.72;;;5.76;82.92
64967;BME280;51710;38.732;-121.358;2023-01-28T10:20:32;101231.63;;;5.74;82.75
64967;BME280;51710;38.732;-121.358;2023-01-28T10:25:33;101240.97;;;5.67;83.16
64967;BME280;51710;38.732;-121.358;2023-01-28T10:28:01;101239.72;;;5.60;83.00
64967;BME280;51710;38.732;-121.358;2023-01-28T10:30:30;101240.19;;;5.54;83.43
64967;BME280;51710;38.732;-121.358;2023-01-28T10:33:17;101232.47;;;5.51;83.27
64967;BME280;51710;38.732;-121.358;2023-01-28T10:35:43;101228.91;;;5.52;83.40
64967;BME280;51710;38.732;-121.358;2023-01-28T10:38:13;101232.59;;;5.49;82.98
64967;BME280;51710;38.732;-121.358;2023-01-28T10:40:41;101231.78;;;5.49;83.39
64967;BME280;51710;38.732;-121.358;2023-01-28T10:43:08;101228.41;;;5.47;83.18
64967;BME280;51710;38.732;-121.358;2023-01-28T10:45:45;101232.84;;;5.46;82.99
64967;BME280;51710;38.732;-121.358;2023-01-28T10:48:24;101233.91;;;5.44;83.39
64967;BME280;51710;38.732;-121.358;2023-01-28T10:50:52;101238.56;;;5.40;83.01
64967;BME280;51710;38.732;-121.358;2023-01-28T10:53:19;101224.00;;;5.35;82.75
64967;BME280;51710;38.732;-121.358;2023-01-28T10:55:53;101229.50;;;5.32;82.56
64967;BME280;51710;38.732;-121.358;2023-01-28T10:58:23;101229.00;;;5.27;82.72
64967;BME280;51710;38.732;-121.358;2023-01-28T11:00:59;101229.09;;;5.25;83.23
64967;BME280;51710;38.732;-121.358;2023-01-28T11:03:26;101231.88;;;5.24;83.40
64967;BME280;51710;38.732;-121.358;2023-01-28T11:05:57;101226.81;;;5.21;83.25
64967;BME280;51710;38.732;-121.358;2023-01-28T11:08:26;101223.66;;;5.16;83.22
64967;BME280;51710;38.732;-121.358;2023-01-28T11:10:54;101228.44;;;5.11;82.96
64967;BME280;51710;38.732;-121.358;2023-01-28T11:13:28;101224.44;;;5.05;83.27
64967;BME280;51710;38.732;-121.358;2023-01-28T11:16:12;101226.44;;;5.02;83.80
64967;BME280;51710;38.732;-121.358;2023-01-28T11:18:46;101232.66;;;5.01;83.55
64967;BME280;51710;38.732;-121.358;2023-01-28T11:21:21;101235.44;;;4.87;83.03
64967;BME280;51710;38.732;-121.358;2023-01-28T11:24:32;101231.13;;;4.73;83.37
64967;BME280;51710;38.732;-121.358;2023-01-28T11:26:43;101225.34;;;4.68;84.01
64967;BME280;51710;38.732;-121.358;2023-01-28T11:29:40;101217.09;;;4.73;84.34
64967;BME280;51710;38.732;-121.358;2023-01-28T11:32:19;101216.78;;;4.77;84.71
64967;BME280;51710;38.732;-121.358;2023-01-28T11:34:54;101217.41;;;4.81;84.46
64967;BME280;51710;38.732;-121.358;2023-01-28T11:37:26;101213.94;;;4.80;84.28
64967;BME280;51710;38.732;-121.358;2023-01-28T11:40:16;101216.16;;;4.74;83.73
64967;BME280;51710;38.732;-121.358;2023-01-28T11:42:46;101213.41;;;4.63;83.37
64967;BME280;51710;38.732;-121.358;2023-01-28T11:45:19;101203.50;;;4.53;83.28
64967;BME280;51710;38.732;-121.358;2023-01-28T11:47:58;101198.47;;;4.50;83.65
64967;BME280;51710;38.732;-121.358;2023-01-28T11:50:38;101192.66;;;4.45;83.71
64967;BME280;51710;38.732;-121.358;2023-01-28T11:53:29;101197.41;;;4.40;83.52
64967;BME280;51710;38.732;-121.358;2023-01-28T11:56:11;101186.88;;;4.40;83.73
64967;BME280;51710;38.732;-121.358;2023-01-28T11:59:23;101195.00;;;4.37;83.60
64967;BME280;51710;38.732;-121.358;2023-01-28T12:02:08;101206.47;;;4.36;83.74
64967;BME280;51710;38.732;-121.358;2023-01-28T12:05:06;101200.47;;;4.34;84.15
64967;BME280;51710;38.732;-121.358;2023-01-28T12:32:41;101193.59;;;3.94;83.87
64967;BME280;51710;38.732;-121.358;2023-01-28T12:35:28;101172.31;;;3.85;84.53
64967;BME280;51710;38.732;-121.358;2023-01-28T12:38:06;101181.78;;;3.87;85.02
64967;BME280;51710;38.732;-121.358;2023-01-28T12:43:18;101190.25;;;3.92;84.76
64967;BME280;51710;38.732;-121.358;2023-01-28T12:45:51;101201.19;;;3.86;84.81
64967;BME280;51710;38.732;-121.358;2023-01-28T12:48:48;101195.69;;;3.89;85.21
64967;BME280;51710;38.732;-121.358;2023-01-28T12:51:26;101198.84;;;3.94;85.02
64967;BME280;51710;38.732;-121.358;2023-01-28T12:54:00;101200.56;;;3.95;85.10
64967;BME280;51710;38.732;-121.358;2023-01-28T12:56:34;101201.94;;;4.01;85.03
64967;BME280;51710;38.732;-121.358;2023-01-28T12:59:15;101192.75;;;4.06;85.21
64967;BME280;51710;38.732;-121.358;2023-01-28T13:01:50;101199.31;;;4.13;85.39
64967;BME280;51710;38.732;-121.358;2023-01-28T13:06:59;101199.09;;;4.29;85.15
64967;BME280;51710;38.732;-121.358;2023-01-28T13:09:29;101203.72;;;4.25;85.08
64967;BME280;51710;38.732;-121.358;2023-01-28T13:11:57;101198.69;;;4.22;84.73
64967;BME280;51710;38.732;-121.358;2023-01-28T13:14:29;101204.91;;;4.09;84.53
64967;BME280;51710;38.732;-121.358;2023-01-28T13:17:07;101209.84;;;4.01;84.87
64967;BME280;51710;38.732;-121.358;2023-01-28T13:19:39;101212.38;;;4.02;85.36
64967;BME280;51710;38.732;-121.358;2023-01-28T13:22:23;101210.50;;;4.04;85.40
64967;BME280;51710;38.732;-121.358;2023-01-28T13:24:51;101217.22;;;4.08;85.29
64967;BME280;51710;38.732;-121.358;2023-01-28T13:27:25;101211.94;;;4.08;85.62
64967;BME280;51710;38.732;-121.358;2023-01-28T13:30:25;101207.41;;;4.10;85.47
64967;BME280;51710;38.732;-121.358;2023-01-28T13:32:58;101208.38;;;4.09;85.52
64967;BME280;51710;38.732;-121.358;2023-01-28T13:35:35;101215.09;;;4.13;85.75
64967;BME280;51710;38.732;-121.358;2023-01-28T13:38:16;101209.66;;;4.16;85.55
64967;BME280;51710;38.732;-121.358;2023-01-28T13:40:57;101203.31;;;4.19;85.57
64967;BME280;51710;38.732;-121.358;2023-01-28T13:46:24;101207.31;;;4.24;85.43
64967;BME280;51710;38.732;-121.358;2023-01-28T13:48:54;101205.84;;;4.20;85.46
64967;BME280;51710;38.732;-121.358;2023-01-28T13:51:39;101206.91;;;4.05;84.86
64967;BME280;51710;38.732;-121.358;2023-01-28T13:54:20;101202.34;;;3.95;84.80
64967;BME280;51710;38.732;-121.358;2023-01-28T14:00:07;101198.66;;;3.85;85.25